CheckWX is a tool to help pilots better visualize weather data.  It is not intended as a substitute for an official pre-flight weather briefing.

17:49:10 UTC

SBBG METAR
Comandante Gustavo Kraemer Airport
Bagé, Brazil
Current

49 mins ago

SBBG 201700Z 11001KT 9999 FEW015 35/18 Q1010
Observed
Feb-20 @ 17:00 UTC
Wind
  • 110° at 1 KTS
Visibility
10,000+ meters
Flight Rules
VFR
Cloud Levels
  • Few at 1,500' AGL
Temperature
35°C / 95°F
Dewpoint
18°C / 64°F
Humidity
36%
Altimeter
29.82" Hg
Pressure
1009.92 hPa
Previous

2 hours ago

SBBG 201615Z 14001KT 9999 FEW013 36/17 Q1011
Observed
Feb-20 @ 16:15 UTC
Wind
  • 140° at 1 KTS
Visibility
10,000+ meters
Flight Rules
VFR
Cloud Levels
  • Few at 1,300' AGL
Temperature
36°C / 97°F
Dewpoint
17°C / 63°F
Humidity
32%
Altimeter
29.85" Hg
Pressure
1010.92 hPa
Previous

3 hours ago

SBBG 201500Z 17003KT CAVOK 33/18 Q1011
Observed
Feb-20 @ 15:00 UTC
Wind
  • 170° at 3 KTS
Visibility
10,000+ meters
Flight Rules
VFR
Cloud Levels
  • Clear skies
Temperature
33°C / 91°F
Dewpoint
18°C / 64°F
Humidity
41%
Altimeter
29.85" Hg
Pressure
1010.92 hPa